Terminal Aerodrome Forecast
Issued by NWS Wakefield, VA

Home | Current Version | Previous Version | Text Only | Print | Product List | Glossary On
Versions: 1 2 3 4 5 6 7 8 9 10 11 12 13 14 15 16 17 18 19
000
FTUS41 KAKQ 042309 AAC
TAFRIC
TAF AMD
KRIC 042309Z 0423/0518 24007KT 4SM TSRA BKN040CB
     FM042330 VRB03KT 5SM BR SCT040 OVC100
     FM050800 01003KT 4SM BR OVC020
     FM051500 05006KT P6SM SCT030 OVC120=

USA.gov is the U.S. government's official web portal to all federal, state and local government web resources and services.